Bernice Lind — WDC8364 — position and weather

sailwx.info

Track history (hours):
 
Tides and Currents Weather Stations Pressure Air Temp Water Temp Dewpoint Dewpoint Depression Visibility Wind Speed Wind Dir Waves Ship Positions

Bernice Lind

Owner: Riverview Equipment Company, LLC, Petaluma, CA. More information available from US FCC via Universal Licensing System and Coast Guard Vessel Documentation Center.

Last reported at 2015-Aug-28 21:23 UTC. Time now 2015-Sep-03 15:16 UTC.
Position N 38°06' W 122°16'.

Length 20 m; draft 3 m.

Type: Towing. MMSI: 367085890.

Date/timePositionNaut miles runAvg speedWind from/ knotsBaromVisibWave heightAir tempDewpointWater temp
2015-Aug-28 21:23N 38°06' W 122°16'2 2.7
2015-Aug-28 20:31N 38°07' W 122°18'0 0.0
2015-Aug-28 00:13N 38°07' W 122°18'0 0.0
2015-Aug-27 23:33N 38°07' W 122°18'2 0.9
2015-Aug-27 21:33N 38°06' W 122°16'1 0.6
2015-Aug-27 20:22N 38°06' W 122°16'0 0.1
2015-Aug-27 19:18N 38°06' W 122°16'1 1.6
2015-Aug-27 18:32N 38°07' W 122°17'1 0.7
2015-Aug-27 17:09N 38°06' W 122°16'0 0.1
2015-Aug-27 14:33N 38°06' W 122°16'0 0.0
2015-Aug-27 13:32N 38°06' W 122°16'0 0.0
2015-Aug-27 04:16N 38°06' W 122°16'0 0.0
2015-Aug-27 00:19N 38°06' W 122°16'0 0.1
2015-Aug-26 23:33N 38°06' W 122°16'1 0.0
2015-Aug-25 23:32N 38°05' W 122°15'18 5.7
2015-Aug-25 20:28N 38°13' W 122°35'  
2015-Aug-23 01:33N 38°14' W 122°37'0 0.0
2015-Aug-23 00:34N 38°14' W 122°37'2 2.4
2015-Aug-22 23:33N 38°12' W 122°34'3 2.7
2015-Aug-22 22:33N 38°10' W 122°33'5 3.8
2015-Aug-22 21:22N 38°07' W 122°28'3 3.6
2015-Aug-22 20:26N 38°04' W 122°26'2 1.3
2015-Aug-22 19:13N 38°03' W 122°25'0 0.0
2015-Aug-22 18:33N 38°03' W 122°25'0 0.0
2015-Aug-22 17:09N 38°03' W 122°25'0 0.0
2015-Aug-22 16:32N 38°03' W 122°25'0 0.0
2015-Aug-22 15:33N 38°03' W 122°25'0 0.0
2015-Aug-22 14:34N 38°03' W 122°25'0 0.0
2015-Aug-22 13:33N 38°03' W 122°25'0 0.0
2015-Aug-22 12:33N 38°03' W 122°25'0 0.4
2015-Aug-22 11:24N 38°02' W 122°25'0 0.4
2015-Aug-22 10:32N 38°02' W 122°25'1 0.9
2015-Aug-22 09:32N 38°02' W 122°24'4 4.2
2015-Aug-22 08:34N 38°03' W 122°19'6 5.5
2015-Aug-22 07:32N 38°03' W 122°12'10 4.8
2015-Aug-22 05:28N 38°04' W 121°59'9 0.7
2015-Aug-21 17:33N 38°03' W 122°10'4 4.1
2015-Aug-21 16:33N 38°05' W 122°15'6 5.6
2015-Aug-21 15:33N 38°10' W 122°18'4 3.8
2015-Aug-21 14:30N 38°14' W 122°18'  
Track history (hours):
 
Tides and Currents Weather Stations Pressure Air Temp Water Temp Dewpoint Dewpoint Depression Visibility Wind Speed Wind Dir Waves Ship Positions

Bernice Lind

Owner: Riverview Equipment Company, LLC, Petaluma, CA. More information available from US FCC via Universal Licensing System and Coast Guard Vessel Documentation Center.

Last reported at 2015-Aug-28 21:23 UTC. Time now 2015-Sep-03 15:16 UTC.
Position N 38°06' W 122°16'.

Length 20 m; draft 3 m.

Type: Towing. MMSI: 367085890.

Date/timePositionNaut miles runAvg speedWind from/ knotsBaromVisibWave heightAir tempDewpointWater temp
2015-Aug-28 21:23N 38°06' W 122°16'2 2.7
2015-Aug-28 20:31N 38°07' W 122°18'0 0.0
2015-Aug-28 00:13N 38°07' W 122°18'0 0.0
2015-Aug-27 23:33N 38°07' W 122°18'2 0.9
2015-Aug-27 21:33N 38°06' W 122°16'1 0.6
2015-Aug-27 20:22N 38°06' W 122°16'0 0.1
2015-Aug-27 19:18N 38°06' W 122°16'1 1.6
2015-Aug-27 18:32N 38°07' W 122°17'1 0.7
2015-Aug-27 17:09N 38°06' W 122°16'0 0.1
2015-Aug-27 14:33N 38°06' W 122°16'0 0.0
2015-Aug-27 13:32N 38°06' W 122°16'0 0.0
2015-Aug-27 04:16N 38°06' W 122°16'0 0.0
2015-Aug-27 00:19N 38°06' W 122°16'0 0.1
2015-Aug-26 23:33N 38°06' W 122°16'1 0.0
2015-Aug-25 23:32N 38°05' W 122°15'18 5.7
2015-Aug-25 20:28N 38°13' W 122°35'  
2015-Aug-23 01:33N 38°14' W 122°37'0 0.0
2015-Aug-23 00:34N 38°14' W 122°37'2 2.4
2015-Aug-22 23:33N 38°12' W 122°34'3 2.7
2015-Aug-22 22:33N 38°10' W 122°33'5 3.8
2015-Aug-22 21:22N 38°07' W 122°28'3 3.6
2015-Aug-22 20:26N 38°04' W 122°26'2 1.3
2015-Aug-22 19:13N 38°03' W 122°25'0 0.0
2015-Aug-22 18:33N 38°03' W 122°25'0 0.0
2015-Aug-22 17:09N 38°03' W 122°25'0 0.0
2015-Aug-22 16:32N 38°03' W 122°25'0 0.0
2015-Aug-22 15:33N 38°03' W 122°25'0 0.0
2015-Aug-22 14:34N 38°03' W 122°25'0 0.0
2015-Aug-22 13:33N 38°03' W 122°25'0 0.0
2015-Aug-22 12:33N 38°03' W 122°25'0 0.4
2015-Aug-22 11:24N 38°02' W 122°25'0 0.4
2015-Aug-22 10:32N 38°02' W 122°25'1 0.9
2015-Aug-22 09:32N 38°02' W 122°24'4 4.2
2015-Aug-22 08:34N 38°03' W 122°19'6 5.5
2015-Aug-22 07:32N 38°03' W 122°12'10 4.8
2015-Aug-22 05:28N 38°04' W 121°59'9 0.7
2015-Aug-21 17:33N 38°03' W 122°10'4 4.1
2015-Aug-21 16:33N 38°05' W 122°15'6 5.6
2015-Aug-21 15:33N 38°10' W 122°18'4 3.8
2015-Aug-21 14:30N 38°14' W 122°18'  

Dump ship's entire track history